Time;durP1;ratioP1;P1;durP2;ratioP2;P2;SDS_P1;SDS_P2;PMS_P1;PMS_P2;Temp;Humidity;BMP_temperature;BMP_pressure;BME280_temperature;BME280_humidity;BME280_pressure;Samples;Min_cycle;Max_cycle;Signal;HPM_P1;HPM_P2
2023/09/22 00:00:15;;;;;;;8.52;3.17;;;;;;;;;;5015268;28;20086;-59
2023/09/22 00:02:44;;;;;;;6.45;3.13;;;;;;;;;;5015821;28;20483;-58
2023/09/22 00:05:14;;;;;;;7.63;3.22;;;;;;;;;;5015763;28;20112;-60
2023/09/22 00:07:42;;;;;;;7.70;2.85;;;;;;;;;;5006002;28;20529;-58
2023/09/22 00:10:09;;;;;;;5.32;2.80;;;;;;;;;;5014853;28;20046;-61
2023/09/22 00:12:36;;;;;;;4.90;2.70;;;;;;;;;;5015656;28;20980;-60
2023/09/22 00:15:03;;;;;;;5.75;2.78;;;;;;;;;;5015769;28;20044;-58
2023/09/22 00:17:30;;;;;;;7.25;3.00;;;;;;;;;;5014287;28;20498;-60
2023/09/22 00:19:56;;;;;;;11.68;3.13;;;;;;;;;;5015060;28;20061;-61
2023/09/22 00:22:23;;;;;;;8.93;2.75;;;;;;;;;;5016181;28;20505;-61
2023/09/22 00:24:50;;;;;;;7.30;3.13;;;;;;;;;;5014861;28;20034;-61
2023/09/22 00:27:17;;;;;;;6.68;3.00;;;;;;;;;;5014715;28;21291;-59
2023/09/22 00:29:43;;;;;;;5.95;3.08;;;;;;;;;;5015683;28;21940;-59
2023/09/22 00:32:11;;;;;;;7.55;3.10;;;;;;;;;;5015051;28;20039;-59
2023/09/22 00:34:38;;;;;;;6.63;2.85;;;;;;;;;;5011842;28;20053;-59
2023/09/22 00:37:05;;;;;;;8.68;3.10;;;;;;;;;;4996200;28;20411;-60
2023/09/22 00:39:32;;;;;;;7.40;2.90;;;;;;;;;;5015084;28;20485;-58
2023/09/22 00:41:59;;;;;;;6.60;2.95;;;;;;;;;;4999329;28;20061;-59
2023/09/22 00:44:26;;;;;;;5.82;2.78;;;;;;;;;;5016664;28;20502;-60
2023/09/22 00:46:52;;;;;;;6.32;3.55;;;;;;;;;;5017018;28;20037;-57
2023/09/22 00:49:19;;;;;;;5.72;3.00;;;;;;;;;;5016774;28;20060;-58
2023/09/22 00:51:46;;;;;;;7.53;3.15;;;;;;;;;;5016635;28;20044;-58
2023/09/22 00:54:13;;;;;;;4.90;2.70;;;;;;;;;;5017166;28;20034;-59
2023/09/22 00:56:40;;;;;;;6.72;3.10;;;;;;;;;;5016916;28;20103;-58
2023/09/22 00:59:07;;;;;;;7.57;2.97;;;;;;;;;;5017919;28;20383;-58
2023/09/22 01:01:34;;;;;;;8.27;3.22;;;;;;;;;;5017483;28;20079;-60
2023/09/22 01:04:01;;;;;;;7.93;3.47;;;;;;;;;;5018765;28;21492;-61
2023/09/22 01:06:28;;;;;;;8.02;3.38;;;;;;;;;;4999471;28;20485;-60
2023/09/22 01:08:56;;;;;;;8.40;3.20;;;;;;;;;;5017416;28;20122;-60
2023/09/22 01:11:22;;;;;;;8.70;3.35;;;;;;;;;;5017232;28;20065;-59
2023/09/22 01:13:49;;;;;;;8.50;3.55;;;;;;;;;;5016796;28;20049;-59
2023/09/22 01:16:16;;;;;;;8.57;3.67;;;;;;;;;;5017175;28;21700;-60
2023/09/22 01:18:43;;;;;;;8.35;3.47;;;;;;;;;;4998061;28;20877;-61
2023/09/22 01:21:09;;;;;;;6.95;3.25;;;;;;;;;;5016852;28;20038;-61
2023/09/22 01:23:36;;;;;;;7.20;3.60;;;;;;;;;;5016461;28;20032;-59
2023/09/22 01:26:02;;;;;;;8.35;3.35;;;;;;;;;;4995801;28;20498;-60
2023/09/22 01:28:29;;;;;;;6.65;3.17;;;;;;;;;;5015610;28;20743;-63
2023/09/22 01:30:56;;;;;;;6.60;3.13;;;;;;;;;;5017327;28;20123;-61
2023/09/22 01:33:22;;;;;;;7.00;3.60;;;;;;;;;;5017433;28;20030;-61
2023/09/22 01:35:49;;;;;;;7.18;3.53;;;;;;;;;;5016021;28;20525;-65
2023/09/22 01:38:23;;;;;;;12.35;3.80;;;;;;;;;;4993869;28;20482;-62
2023/09/22 01:40:50;;;;;;;12.38;3.90;;;;;;;;;;5011658;28;20281;-61
2023/09/22 01:43:18;;;;;;;8.40;3.38;;;;;;;;;;4990994;28;20041;-61
2023/09/22 01:45:45;;;;;;;8.05;3.80;;;;;;;;;;4993000;28;20577;-60
2023/09/22 01:48:12;;;;;;;7.28;3.80;;;;;;;;;;4992935;28;20056;-63
2023/09/22 01:50:40;;;;;;;6.93;3.60;;;;;;;;;;4987081;28;20041;-62
2023/09/22 01:53:09;;;;;;;6.90;3.53;;;;;;;;;;5018275;28;20471;-61
2023/09/22 01:55:36;;;;;;;7.43;3.42;;;;;;;;;;4998939;28;20143;-62
2023/09/22 01:58:07;;;;;;;7.85;3.33;;;;;;;;;;4998940;28;20037;-62
2023/09/22 02:00:36;;;;;;;6.53;3.88;;;;;;;;;;5017080;28;20049;-58
2023/09/22 02:03:03;;;;;;;9.20;3.92;;;;;;;;;;5017112;28;20041;-61
2023/09/22 02:05:30;;;;;;;9.38;3.85;;;;;;;;;;4996809;28;20541;-61
2023/09/22 02:08:00;;;;;;;8.95;4.10;;;;;;;;;;4990147;28;20077;-59
2023/09/22 02:10:27;;;;;;;8.32;3.75;;;;;;;;;;5013090;28;20071;-57
2023/09/22 02:12:54;;;;;;;11.40;5.82;;;;;;;;;;5017595;28;20524;-58
2023/09/22 02:15:20;;;;;;;7.35;3.90;;;;;;;;;;5016107;28;20034;-60
2023/09/22 02:17:47;;;;;;;6.90;3.72;;;;;;;;;;5013297;28;20596;-58
2023/09/22 02:22:45;;;;;;;10.52;4.43;;;;;;;;;;5004031;28;20037;-59
2023/09/22 02:25:15;;;;;;;9.13;4.55;;;;;;;;;;5013917;28;20064;-59
2023/09/22 02:27:42;;;;;;;13.48;4.00;;;;;;;;;;4998122;28;20053;-61
2023/09/22 02:30:10;;;;;;;12.10;4.78;;;;;;;;;;5018345;28;20029;-58
2023/09/22 02:32:37;;;;;;;10.40;4.38;;;;;;;;;;5016364;28;20410;-60
2023/09/22 02:35:03;;;;;;;10.77;4.90;;;;;;;;;;4999966;28;20045;-57
2023/09/22 02:37:30;;;;;;;10.85;4.78;;;;;;;;;;5016616;28;20052;-59
2023/09/22 02:39:57;;;;;;;14.57;5.47;;;;;;;;;;5015490;28;20616;-58
2023/09/22 02:42:23;;;;;;;21.25;7.18;;;;;;;;;;5013750;28;20209;-63
2023/09/22 02:44:50;;;;;;;17.42;7.10;;;;;;;;;;5015418;28;20045;-59
2023/09/22 02:47:17;;;;;;;19.20;7.85;;;;;;;;;;4993829;28;20038;-59
2023/09/22 02:49:43;;;;;;;18.23;7.80;;;;;;;;;;4998571;28;20069;-62
2023/09/22 02:52:10;;;;;;;16.45;6.60;;;;;;;;;;5016922;28;20556;-57
2023/09/22 02:54:37;;;;;;;12.90;6.07;;;;;;;;;;4999366;28;21344;-60
2023/09/22 02:57:04;;;;;;;10.15;4.80;;;;;;;;;;5003035;28;20096;-62
2023/09/22 02:59:31;;;;;;;11.80;4.75;;;;;;;;;;4982774;28;20398;-58
2023/09/22 03:01:59;;;;;;;9.65;4.38;;;;;;;;;;4996281;28;20120;-59
2023/09/22 03:04:26;;;;;;;8.18;4.53;;;;;;;;;;4990337;28;20099;-60
2023/09/22 03:06:53;;;;;;;11.57;5.07;;;;;;;;;;5005501;28;20136;-58
2023/09/22 03:09:20;;;;;;;20.67;5.47;;;;;;;;;;5016887;28;20612;-58
2023/09/22 03:11:47;;;;;;;11.75;5.05;;;;;;;;;;5016192;28;20449;-61
2023/09/22 03:14:13;;;;;;;12.55;4.95;;;;;;;;;;5015831;28;20508;-63
2023/09/22 03:16:41;;;;;;;12.95;4.72;;;;;;;;;;5015490;28;20033;-64
2023/09/22 03:19:09;;;;;;;11.57;4.15;;;;;;;;;;5014787;28;20085;-61
2023/09/22 03:21:36;;;;;;;13.50;4.93;;;;;;;;;;4997810;28;20107;-58
2023/09/22 03:24:03;;;;;;;11.73;4.68;;;;;;;;;;5013843;28;20149;-62
2023/09/22 03:26:29;;;;;;;11.05;4.50;;;;;;;;;;5014032;28;20451;-59
2023/09/22 03:28:56;;;;;;;12.68;4.68;;;;;;;;;;4968043;28;20054;-59
2023/09/22 03:31:23;;;;;;;11.35;4.32;;;;;;;;;;4968268;28;20089;-60
2023/09/22 03:33:50;;;;;;;10.48;4.57;;;;;;;;;;4911586;28;20078;-59
2023/09/22 03:36:16;;;;;;;9.13;4.65;;;;;;;;;;4968690;28;20044;-59
2023/09/22 03:38:47;;;;;;;10.18;4.25;;;;;;;;;;4968707;28;20050;-59
2023/09/22 03:41:17;;;;;;;11.15;4.80;;;;;;;;;;4960322;28;20034;-60
2023/09/22 03:43:44;;;;;;;8.95;4.25;;;;;;;;;;4967735;28;20050;-61
2023/09/22 03:46:11;;;;;;;9.15;4.50;;;;;;;;;;4961245;28;20541;-63
2023/09/22 03:48:38;;;;;;;9.98;4.78;;;;;;;;;;4966325;28;20101;-60
2023/09/22 03:51:05;;;;;;;9.02;4.60;;;;;;;;;;4968529;28;20052;-60
2023/09/22 03:53:32;;;;;;;8.43;4.53;;;;;;;;;;4966904;28;20049;-62
2023/09/22 03:55:58;;;;;;;9.63;4.72;;;;;;;;;;4970108;28;20668;-62
2023/09/22 03:58:25;;;;;;;9.23;4.35;;;;;;;;;;4966744;28;20048;-63
2023/09/22 04:00:53;;;;;;;8.48;4.50;;;;;;;;;;4969997;28;20041;-61
2023/09/22 04:03:19;;;;;;;8.48;4.40;;;;;;;;;;4973053;28;20038;-61
2023/09/22 04:05:47;;;;;;;11.65;4.50;;;;;;;;;;4973826;28;20053;-59
2023/09/22 04:08:16;;;;;;;9.55;4.53;;;;;;;;;;4983817;28;20186;-62
2023/09/22 04:10:44;;;;;;;9.75;4.60;;;;;;;;;;4983825;28;20204;-61
2023/09/22 04:13:11;;;;;;;8.38;4.30;;;;;;;;;;4986843;28;20049;-65
2023/09/22 04:15:38;;;;;;;9.35;4.15;;;;;;;;;;4995469;28;20171;-63
2023/09/22 04:18:05;;;;;;;9.38;4.15;;;;;;;;;;4994757;28;21527;-64
2023/09/22 04:20:37;;;;;;;9.90;4.22;;;;;;;;;;4991255;28;20046;-61
2023/09/22 04:23:05;;;;;;;6.90;3.90;;;;;;;;;;4983226;28;20072;-61
2023/09/22 04:25:37;;;;;;;9.10;4.20;;;;;;;;;;4980548;28;20030;-65
2023/09/22 04:28:17;;;;;;;7.15;3.97;;;;;;;;;;4991036;28;20060;-62
2023/09/22 04:30:44;;;;;;;10.48;4.60;;;;;;;;;;4989982;28;20140;-63
2023/09/22 04:33:11;;;;;;;6.60;3.92;;;;;;;;;;4980650;28;20672;-63
2023/09/22 04:35:40;;;;;;;9.60;4.00;;;;;;;;;;4989264;28;20403;-62
2023/09/22 04:38:07;;;;;;;9.65;4.38;;;;;;;;;;4990447;28;20140;-61
2023/09/22 04:40:39;;;;;;;10.00;4.05;;;;;;;;;;4980864;28;20586;-63
2023/09/22 04:43:07;;;;;;;11.45;3.92;;;;;;;;;;5003587;28;20041;-62
2023/09/22 04:45:37;;;;;;;8.65;4.32;;;;;;;;;;4989005;28;20069;-62
2023/09/22 04:48:07;;;;;;;9.77;4.40;;;;;;;;;;4990138;28;20058;-62
2023/09/22 04:50:34;;;;;;;8.05;4.38;;;;;;;;;;4980230;28;20045;-63
2023/09/22 04:53:20;;;;;;;6.97;4.05;;;;;;;;;;4990384;28;20488;-62
2023/09/22 04:55:48;;;;;;;10.25;4.50;;;;;;;;;;4965122;28;20050;-61
2023/09/22 04:58:16;;;;;;;8.20;4.10;;;;;;;;;;4965884;28;20122;-63
2023/09/22 05:00:42;;;;;;;8.63;4.53;;;;;;;;;;4956887;28;20089;-63
2023/09/22 05:03:10;;;;;;;8.63;4.43;;;;;;;;;;4965894;28;20035;-63
2023/09/22 05:05:36;;;;;;;9.13;4.55;;;;;;;;;;4941909;28;20070;-61
2023/09/22 05:08:05;;;;;;;8.65;4.43;;;;;;;;;;4967269;28;20050;-65
2023/09/22 05:10:31;;;;;;;9.88;4.50;;;;;;;;;;4955912;28;20030;-64
2023/09/22 05:12:59;;;;;;;10.88;4.90;;;;;;;;;;4967892;28;20125;-63
2023/09/22 05:15:26;;;;;;;12.00;4.50;;;;;;;;;;4959202;28;20139;-63
2023/09/22 05:17:55;;;;;;;8.52;4.55;;;;;;;;;;4966697;28;20550;-65
2023/09/22 05:20:21;;;;;;;8.40;4.15;;;;;;;;;;4967695;28;20046;-64
2023/09/22 05:22:48;;;;;;;9.68;4.93;;;;;;;;;;4967160;28;20043;-64
2023/09/22 05:25:15;;;;;;;12.10;4.63;;;;;;;;;;4958383;28;20129;-62
2023/09/22 05:27:42;;;;;;;9.50;4.43;;;;;;;;;;4968769;28;20716;-62
2023/09/22 05:30:10;;;;;;;11.32;4.82;;;;;;;;;;4972951;28;20042;-63
2023/09/22 05:32:37;;;;;;;10.05;4.32;;;;;;;;;;4956165;28;20116;-63
2023/09/22 05:35:04;;;;;;;13.70;5.25;;;;;;;;;;4996458;28;20052;-66
2023/09/22 05:37:31;;;;;;;10.35;5.00;;;;;;;;;;5006705;28;20050;-60
2023/09/22 05:39:57;;;;;;;7.22;4.18;;;;;;;;;;5018627;28;20033;-60
2023/09/22 05:42:24;;;;;;;9.40;4.72;;;;;;;;;;5017383;28;20049;-60
2023/09/22 05:44:51;;;;;;;13.77;4.93;;;;;;;;;;4997724;28;20474;-60
2023/09/22 05:47:18;;;;;;;9.32;5.03;;;;;;;;;;5009925;28;20053;-64
2023/09/22 05:49:45;;;;;;;12.07;5.03;;;;;;;;;;4992663;28;20206;-61
2023/09/22 05:52:12;;;;;;;15.48;4.88;;;;;;;;;;5010489;28;20092;-60
2023/09/22 05:54:38;;;;;;;13.38;5.00;;;;;;;;;;4998739;28;20045;-64
2023/09/22 05:57:06;;;;;;;10.32;5.00;;;;;;;;;;4996769;28;20037;-61
2023/09/22 05:59:33;;;;;;;11.52;5.03;;;;;;;;;;4998825;28;20037;-61
2023/09/22 06:02:00;;;;;;;9.98;4.60;;;;;;;;;;4998112;28;20660;-63
2023/09/22 06:04:29;;;;;;;11.98;5.82;;;;;;;;;;4951201;28;20427;-65
2023/09/22 06:06:56;;;;;;;10.00;5.65;;;;;;;;;;4939956;28;20535;-63
2023/09/22 06:09:23;;;;;;;10.80;5.13;;;;;;;;;;4939782;28;20047;-64
2023/09/22 06:11:49;;;;;;;13.27;5.07;;;;;;;;;;4951445;28;20043;-62
2023/09/22 06:14:16;;;;;;;11.77;4.53;;;;;;;;;;4948020;28;20065;-63
2023/09/22 06:16:43;;;;;;;11.57;5.03;;;;;;;;;;4950762;28;20073;-62
2023/09/22 06:19:12;;;;;;;11.18;4.75;;;;;;;;;;4939090;28;20263;-61
2023/09/22 06:21:39;;;;;;;8.98;4.43;;;;;;;;;;4952502;28;20117;-62
2023/09/22 06:24:07;;;;;;;12.20;4.88;;;;;;;;;;4935830;28;20042;-62
2023/09/22 06:26:33;;;;;;;10.15;5.13;;;;;;;;;;4948560;28;20070;-61
2023/09/22 06:29:00;;;;;;;12.55;4.97;;;;;;;;;;4953758;28;20054;-60
2023/09/22 06:31:27;;;;;;;10.88;4.63;;;;;;;;;;4951119;28;20382;-60
2023/09/22 06:33:54;;;;;;;10.07;5.25;;;;;;;;;;4951476;28;20039;-61
2023/09/22 06:36:22;;;;;;;12.32;5.20;;;;;;;;;;4950633;28;20049;-62
2023/09/22 06:38:50;;;;;;;11.48;5.25;;;;;;;;;;4951308;28;20050;-61
2023/09/22 06:41:19;;;;;;;9.52;5.10;;;;;;;;;;4961143;28;20073;-62
2023/09/22 06:43:49;;;;;;;11.80;5.03;;;;;;;;;;4994180;28;20675;-60
2023/09/22 06:46:18;;;;;;;14.15;4.95;;;;;;;;;;4993745;28;20581;-63
2023/09/22 06:48:45;;;;;;;9.05;4.57;;;;;;;;;;4995308;28;20056;-61
2023/09/22 06:51:18;;;;;;;8.50;4.80;;;;;;;;;;4996149;28;20092;-60
2023/09/22 06:53:44;;;;;;;11.10;4.65;;;;;;;;;;4993254;28;20677;-60
2023/09/22 06:56:11;;;;;;;12.25;4.78;;;;;;;;;;4997398;28;21378;-63
2023/09/22 06:58:40;;;;;;;11.90;5.05;;;;;;;;;;4996565;28;20400;-62
2023/09/22 07:01:19;;;;;;;10.10;5.03;;;;;;;;;;4998180;28;20061;-62
2023/09/22 07:03:46;;;;;;;9.82;4.97;;;;;;;;;;4996621;28;20046;-62
2023/09/22 07:06:15;;;;;;;10.93;4.80;;;;;;;;;;4996379;28;20046;-62
2023/09/22 07:08:45;;;;;;;11.57;4.97;;;;;;;;;;4995630;28;20082;-63
2023/09/22 07:11:12;;;;;;;11.55;5.03;;;;;;;;;;4995748;28;21287;-64
2023/09/22 07:13:43;;;;;;;11.93;5.05;;;;;;;;;;4995236;28;20177;-61
2023/09/22 07:16:10;;;;;;;10.25;5.05;;;;;;;;;;5009872;28;20045;-64
2023/09/22 07:18:37;;;;;;;12.95;5.43;;;;;;;;;;4994838;28;20574;-63
2023/09/22 07:21:07;;;;;;;11.35;5.18;;;;;;;;;;4994436;28;20050;-62
2023/09/22 07:23:34;;;;;;;10.80;5.45;;;;;;;;;;4994275;28;20049;-62
2023/09/22 07:26:11;;;;;;;16.50;5.75;;;;;;;;;;4995938;28;20236;-61
2023/09/22 07:28:39;;;;;;;15.95;5.30;;;;;;;;;;4994325;28;20073;-60
2023/09/22 07:31:12;;;;;;;9.63;5.07;;;;;;;;;;4994537;28;20042;-59
2023/09/22 07:33:40;;;;;;;15.52;5.32;;;;;;;;;;4994950;28;20037;-62
2023/09/22 07:36:09;;;;;;;16.25;5.40;;;;;;;;;;4995868;28;20100;-63
2023/09/22 07:38:36;;;;;;;11.52;5.18;;;;;;;;;;4994059;28;20041;-62
2023/09/22 07:41:03;;;;;;;10.18;5.10;;;;;;;;;;4994245;28;20044;-61
2023/09/22 07:43:30;;;;;;;11.65;5.50;;;;;;;;;;4993200;28;20037;-62
2023/09/22 07:45:57;;;;;;;13.60;5.53;;;;;;;;;;4993226;28;20042;-61
2023/09/22 07:48:24;;;;;;;10.15;5.25;;;;;;;;;;4993158;28;20513;-63
2023/09/22 07:50:52;;;;;;;10.88;5.32;;;;;;;;;;4995839;28;20127;-61
2023/09/22 07:53:20;;;;;;;10.45;5.22;;;;;;;;;;4995178;28;20950;-60
2023/09/22 07:55:47;;;;;;;10.80;5.65;;;;;;;;;;4994310;28;20168;-60
2023/09/22 07:58:14;;;;;;;11.88;5.47;;;;;;;;;;4995422;28;20037;-60
2023/09/22 08:00:46;;;;;;;12.98;5.78;;;;;;;;;;4993792;28;20394;-62
2023/09/22 08:03:13;;;;;;;9.98;4.93;;;;;;;;;;4995346;28;20056;-62
2023/09/22 08:05:40;;;;;;;12.77;5.55;;;;;;;;;;4993612;28;20158;-62
2023/09/22 08:08:07;;;;;;;9.82;5.03;;;;;;;;;;4994787;28;20069;-60
2023/09/22 08:10:34;;;;;;;11.68;5.53;;;;;;;;;;4994420;28;20037;-60
2023/09/22 08:13:02;;;;;;;12.38;5.20;;;;;;;;;;4994602;28;20045;-60
2023/09/22 08:15:29;;;;;;;13.35;5.43;;;;;;;;;;4992091;28;20097;-62
2023/09/22 08:17:57;;;;;;;11.93;5.15;;;;;;;;;;4993643;28;20034;-62
2023/09/22 08:20:23;;;;;;;14.23;5.05;;;;;;;;;;4994286;28;20046;-60
2023/09/22 08:22:50;;;;;;;11.63;5.40;;;;;;;;;;4993886;28;20038;-62
2023/09/22 08:25:17;;;;;;;11.27;6.00;;;;;;;;;;4993240;28;20045;-62
2023/09/22 08:27:44;;;;;;;9.85;5.85;;;;;;;;;;4995254;28;20487;-61
2023/09/22 08:30:11;;;;;;;11.70;5.60;;;;;;;;;;4994885;28;20170;-65
2023/09/22 08:32:42;;;;;;;10.18;5.55;;;;;;;;;;4993634;28;21041;-61
2023/09/22 08:35:10;;;;;;;9.20;5.68;;;;;;;;;;4993488;28;20096;-61
2023/09/22 08:37:38;;;;;;;17.63;5.82;;;;;;;;;;4994068;28;20041;-60
2023/09/22 08:40:09;;;;;;;9.85;5.32;;;;;;;;;;4988892;28;20066;-59
2023/09/22 08:42:39;;;;;;;11.52;5.72;;;;;;;;;;4994236;28;20054;-63
2023/09/22 08:45:09;;;;;;;9.50;5.57;;;;;;;;;;4992874;28;20114;-62
2023/09/22 08:47:39;;;;;;;10.60;5.57;;;;;;;;;;4993242;28;20057;-62
2023/09/22 08:50:11;;;;;;;9.18;5.50;;;;;;;;;;4994529;28;20054;-63
2023/09/22 08:52:39;;;;;;;12.77;5.40;;;;;;;;;;4994202;28;20064;-60
2023/09/22 08:55:16;;;;;;;13.57;5.22;;;;;;;;;;4992817;28;20133;-63
2023/09/22 08:57:44;;;;;;;13.32;6.13;;;;;;;;;;4992146;28;20375;-62
2023/09/22 09:00:18;;;;;;;13.35;6.63;;;;;;;;;;4996565;28;20125;-64
2023/09/22 09:02:45;;;;;;;13.23;6.03;;;;;;;;;;4997835;28;20057;-64
2023/09/22 09:05:19;;;;;;;11.63;6.03;;;;;;;;;;4996330;28;20522;-64
2023/09/22 09:07:46;;;;;;;;;;;;;;;;;;4997124;28;20104;-63
2023/09/22 09:10:24;;;;;;;11.73;6.13;;;;;;;;;;4998195;28;20361;-62
2023/09/22 09:12:51;;;;;;;14.77;6.13;;;;;;;;;;4997634;28;20266;-63
2023/09/22 09:15:18;;;;;;;12.50;5.97;;;;;;;;;;4998848;28;20129;-64
2023/09/22 09:17:46;;;;;;;10.75;5.78;;;;;;;;;;4998965;28;20038;-63
2023/09/22 09:20:14;;;;;;;10.80;6.43;;;;;;;;;;4999505;28;20034;-63
2023/09/22 09:22:40;;;;;;;15.90;7.00;;;;;;;;;;4999045;28;20180;-63
2023/09/22 09:25:12;;;;;;;11.27;6.50;;;;;;;;;;4998243;28;21364;-63
2023/09/22 09:27:39;;;;;;;13.75;7.25;;;;;;;;;;4996684;28;20049;-63
2023/09/22 09:30:08;;;;;;;14.88;6.97;;;;;;;;;;5000417;28;20595;-63
2023/09/22 09:32:36;;;;;;;14.98;6.72;;;;;;;;;;4998823;28;20068;-62
2023/09/22 09:35:03;;;;;;;16.48;6.97;;;;;;;;;;4997824;28;20046;-62
2023/09/22 09:37:30;;;;;;;12.00;6.70;;;;;;;;;;4998979;28;20072;-63
2023/09/22 09:42:34;;;;;;;14.80;7.25;;;;;;;;;;5594995;22;20084;-64
2023/09/22 09:45:03;;;;;;;18.77;6.82;;;;;;;;;;5044084;28;20071;-63
2023/09/22 09:47:34;;;;;;;19.90;7.25;;;;;;;;;;5040742;28;20099;-63
2023/09/22 09:50:06;;;;;;;14.55;7.03;;;;;;;;;;5027368;28;20033;-62
2023/09/22 09:52:33;;;;;;;11.32;6.95;;;;;;;;;;5033849;28;20044;-63
2023/09/22 09:55:12;;;;;;;13.57;7.03;;;;;;;;;;5037964;28;21263;-62
2023/09/22 09:57:45;;;;;;;14.00;7.07;;;;;;;;;;5041388;28;20058;-63
2023/09/22 10:00:14;;;;;;;10.88;6.50;;;;;;;;;;5045308;28;20317;-63
2023/09/22 10:02:43;;;;;;;14.02;7.13;;;;;;;;;;5060945;28;20135;-61
2023/09/22 10:05:13;;;;;;;13.23;7.15;;;;;;;;;;5064655;28;20037;-63
2023/09/22 10:07:40;;;;;;;13.60;6.85;;;;;;;;;;5062600;28;20055;-61
2023/09/22 10:10:08;;;;;;;12.32;6.70;;;;;;;;;;5065986;28;21681;-63
2023/09/22 10:12:34;;;;;;;10.75;6.38;;;;;;;;;;5066688;28;20044;-61
2023/09/22 10:15:04;;;;;;;11.40;6.22;;;;;;;;;;5064259;28;21271;-61
2023/09/22 10:17:31;;;;;;;10.75;6.13;;;;;;;;;;5064424;28;20036;-63
2023/09/22 10:20:02;;;;;;;13.15;6.40;;;;;;;;;;5065758;28;20072;-61
2023/09/22 10:22:29;;;;;;;13.10;6.53;;;;;;;;;;5065316;28;20044;-60
2023/09/22 10:25:14;;;;;;;13.93;6.47;;;;;;;;;;5063887;28;20679;-62
2023/09/22 10:28:02;;;;;;;12.15;6.60;;;;;;;;;;5063641;28;20134;-61
2023/09/22 10:30:44;;;;;;;16.13;6.57;;;;;;;;;;5062305;28;20036;-60
2023/09/22 10:33:17;;;;;;;11.82;6.50;;;;;;;;;;5063122;28;20137;-60
2023/09/22 10:35:46;;;;;;;17.02;5.60;;;;;;;;;;5062364;28;20048;-61
2023/09/22 10:38:14;;;;;;;16.52;6.13;;;;;;;;;;5061958;28;20534;-60
2023/09/22 10:41:01;;;;;;;10.95;5.68;;;;;;;;;;5061194;28;20191;-60
2023/09/22 10:43:28;;;;;;;13.65;6.45;;;;;;;;;;5055179;28;20135;-63
2023/09/22 10:45:55;;;;;;;11.77;6.05;;;;;;;;;;5061830;28;20701;-61
2023/09/22 10:48:22;;;;;;;12.88;6.18;;;;;;;;;;5061067;28;20045;-63
2023/09/22 10:50:49;;;;;;;12.05;6.03;;;;;;;;;;5061518;28;20504;-63
2023/09/22 10:53:16;;;;;;;13.15;6.68;;;;;;;;;;5061065;28;20036;-61
2023/09/22 10:55:44;;;;;;;10.82;6.00;;;;;;;;;;5061042;28;20119;-60
2023/09/22 10:58:11;;;;;;;14.38;6.75;;;;;;;;;;5061047;28;20108;-61
2023/09/22 11:00:40;;;;;;;13.00;6.63;;;;;;;;;;5061671;28;20043;-62
2023/09/22 11:03:14;;;;;;;10.35;6.78;;;;;;;;;;5062852;28;20043;-63
2023/09/22 11:05:41;;;;;;;14.45;7.50;;;;;;;;;;5062552;28;20049;-61
2023/09/22 11:08:15;;;;;;;12.85;7.25;;;;;;;;;;5063575;28;20047;-62
2023/09/22 11:10:46;;;;;;;12.77;6.80;;;;;;;;;;5062043;28;20071;-62
2023/09/22 11:13:14;;;;;;;11.63;6.93;;;;;;;;;;5063618;28;20622;-62
2023/09/22 11:16:07;;;;;;;16.52;7.65;;;;;;;;;;5062898;28;20043;-59
2023/09/22 11:18:35;;;;;;;16.55;7.25;;;;;;;;;;5044349;28;20067;-60
2023/09/22 11:21:05;;;;;;;14.40;6.57;;;;;;;;;;5063072;28;20040;-61
2023/09/22 11:23:32;;;;;;;21.70;7.88;;;;;;;;;;5062366;28;20043;-62
2023/09/22 11:26:10;;;;;;;13.02;7.22;;;;;;;;;;5063017;28;20051;-63
2023/09/22 11:28:39;;;;;;;14.65;7.35;;;;;;;;;;5042717;28;20047;-59
2023/09/22 11:31:08;;;;;;;13.82;7.10;;;;;;;;;;5042688;28;20100;-60
2023/09/22 11:33:36;;;;;;;14.00;7.07;;;;;;;;;;5060194;28;20047;-63
2023/09/22 11:36:03;;;;;;;14.90;6.68;;;;;;;;;;5028231;28;20127;-61
2023/09/22 11:38:31;;;;;;;14.30;7.82;;;;;;;;;;5027742;28;20666;-61
2023/09/22 11:41:08;;;;;;;14.10;7.05;;;;;;;;;;5028478;28;20749;-60
2023/09/22 11:43:38;;;;;;;13.65;6.75;;;;;;;;;;5026051;28;20544;-61
2023/09/22 11:46:11;;;;;;;14.05;6.97;;;;;;;;;;5027522;28;20047;-64
2023/09/22 11:49:12;;;;;;;14.10;7.30;;;;;;;;;;5026382;28;20267;-60
2023/09/22 11:51:39;;;;;;;12.38;7.10;;;;;;;;;;4975691;28;20605;-62
2023/09/22 11:54:06;;;;;;;13.55;7.53;;;;;;;;;;5019869;28;20227;-61
2023/09/22 11:56:33;;;;;;;14.35;7.22;;;;;;;;;;5027225;28;20574;-63
2023/09/22 11:59:09;;;;;;;14.93;7.40;;;;;;;;;;5027673;28;20040;-63
2023/09/22 12:01:36;;;;;;;13.90;7.13;;;;;;;;;;5025724;28;20041;-62
2023/09/22 12:04:06;;;;;;;17.85;7.68;;;;;;;;;;5027065;28;20041;-60
2023/09/22 12:06:33;;;;;;;14.27;7.63;;;;;;;;;;5030088;28;20124;-60
2023/09/22 12:09:00;;;;;;;18.35;7.18;;;;;;;;;;5060295;28;20055;-60
2023/09/22 12:11:27;;;;;;;19.15;7.72;;;;;;;;;;5062544;28;20530;-61
2023/09/22 12:13:53;;;;;;;14.13;6.88;;;;;;;;;;5062429;28;20059;-61
2023/09/22 12:16:20;;;;;;;12.20;7.13;;;;;;;;;;5062614;28;20036;-61
2023/09/22 12:18:47;;;;;;;13.40;7.57;;;;;;;;;;5061913;28;20032;-64
2023/09/22 12:21:14;;;;;;;16.33;7.28;;;;;;;;;;5043446;28;20082;-62
2023/09/22 12:23:40;;;;;;;13.02;7.13;;;;;;;;;;5059923;28;21291;-62
2023/09/22 12:26:07;;;;;;;12.65;6.78;;;;;;;;;;5061312;28;20193;-60
2023/09/22 12:28:34;;;;;;;14.73;7.40;;;;;;;;;;5059107;28;20535;-60
2023/09/22 12:31:00;;;;;;;12.07;7.30;;;;;;;;;;5060530;28;20458;-61
2023/09/22 12:33:27;;;;;;;11.73;7.15;;;;;;;;;;5061201;28;20041;-60
2023/09/22 12:35:54;;;;;;;16.02;7.30;;;;;;;;;;5062926;28;20044;-60
2023/09/22 12:38:24;;;;;;;17.13;7.25;;;;;;;;;;5062663;28;20047;-62
2023/09/22 12:40:51;;;;;;;12.07;6.47;;;;;;;;;;5046258;28;20032;-61
2023/09/22 12:43:18;;;;;;;15.93;7.28;;;;;;;;;;5064288;28;20105;-61
2023/09/22 12:45:45;;;;;;;16.83;7.53;;;;;;;;;;5062865;28;20050;-60
2023/09/22 12:48:12;;;;;;;16.27;7.00;;;;;;;;;;5065313;28;20523;-60
2023/09/22 12:50:39;;;;;;;15.65;7.28;;;;;;;;;;5043608;28;20080;-61
2023/09/22 12:53:09;;;;;;;14.05;7.30;;;;;;;;;;5063186;28;20484;-61
2023/09/22 12:55:38;;;;;;;12.68;6.72;;;;;;;;;;5061080;28;20043;-63
2023/09/22 12:58:05;;;;;;;17.00;7.65;;;;;;;;;;5063324;28;20042;-61
2023/09/22 13:00:42;;;;;;;17.30;7.88;;;;;;;;;;5062100;28;20052;-61
2023/09/22 13:03:08;;;;;;;13.38;6.95;;;;;;;;;;5064688;28;20033;-61
2023/09/22 13:05:35;;;;;;;13.90;7.13;;;;;;;;;;5063068;28;20098;-59
2023/09/22 13:08:02;;;;;;;13.50;7.38;;;;;;;;;;5063687;28;20182;-60
2023/09/22 13:10:29;;;;;;;15.00;8.23;;;;;;;;;;5064394;28;20078;-62
2023/09/22 13:12:56;;;;;;;19.25;8.73;;;;;;;;;;5064624;28;20134;-62
2023/09/22 13:15:22;;;;;;;18.73;8.10;;;;;;;;;;5063939;28;20033;-62
2023/09/22 13:17:50;;;;;;;15.10;8.18;;;;;;;;;;5064568;28;20527;-62
2023/09/22 13:20:17;;;;;;;17.02;7.95;;;;;;;;;;5064013;28;20094;-63
2023/09/22 13:22:44;;;;;;;20.75;7.35;;;;;;;;;;5061820;28;20131;-62
2023/09/22 13:25:10;;;;;;;13.63;7.18;;;;;;;;;;5063696;28;20059;-62
2023/09/22 13:27:39;;;;;;;21.25;8.05;;;;;;;;;;5062691;28;20044;-60
2023/09/22 13:30:06;;;;;;;17.48;7.80;;;;;;;;;;5062253;28;20117;-61
2023/09/22 13:32:34;;;;;;;15.73;7.15;;;;;;;;;;5062778;28;20066;-62
2023/09/22 13:35:02;;;;;;;16.85;7.70;;;;;;;;;;5063242;28;20051;-56
2023/09/22 13:37:29;;;;;;;13.77;7.68;;;;;;;;;;5062344;28;20079;-60
2023/09/22 13:39:56;;;;;;;14.38;7.57;;;;;;;;;;5063306;28;20042;-61
2023/09/22 13:42:22;;;;;;;15.30;8.07;;;;;;;;;;5061727;28;20596;-60
2023/09/22 13:44:49;;;;;;;13.55;7.60;;;;;;;;;;5044120;28;20045;-60
2023/09/22 13:47:16;;;;;;;14.60;7.05;;;;;;;;;;5062605;28;20047;-62
2023/09/22 13:49:43;;;;;;;14.32;6.78;;;;;;;;;;5061150;28;20076;-61
2023/09/22 13:52:10;;;;;;;21.52;7.80;;;;;;;;;;5062152;28;20040;-61
2023/09/22 13:54:36;;;;;;;11.00;7.43;;;;;;;;;;5062468;28;20132;-61
2023/09/22 13:57:04;;;;;;;15.82;8.00;;;;;;;;;;5064386;28;20662;-61
2023/09/22 13:59:31;;;;;;;17.42;7.18;;;;;;;;;;5062239;28;20125;-59
2023/09/22 14:01:57;;;;;;;15.98;7.53;;;;;;;;;;5062301;28;20496;-64
2023/09/22 14:04:25;;;;;;;16.77;8.43;;;;;;;;;;5061521;28;20498;-61
2023/09/22 14:06:52;;;;;;;22.70;8.13;;;;;;;;;;5063138;28;20453;-62
2023/09/22 14:09:19;;;;;;;16.45;7.65;;;;;;;;;;5063403;28;20036;-63
2023/09/22 14:11:46;;;;;;;20.10;7.80;;;;;;;;;;5060807;28;20515;-62
2023/09/22 14:14:12;;;;;;;18.38;7.55;;;;;;;;;;5062183;28;20036;-66
2023/09/22 14:16:39;;;;;;;15.02;7.85;;;;;;;;;;5061789;28;20511;-63
2023/09/22 14:19:06;;;;;;;19.45;7.82;;;;;;;;;;5062146;28;20047;-63
2023/09/22 14:21:34;;;;;;;13.50;7.43;;;;;;;;;;5061646;28;20066;-60
2023/09/22 14:24:01;;;;;;;16.33;7.72;;;;;;;;;;5049632;28;20135;-60
2023/09/22 14:26:28;;;;;;;14.00;7.65;;;;;;;;;;5060578;28;20037;-63
2023/09/22 14:28:55;;;;;;;17.48;8.20;;;;;;;;;;5062205;28;20066;-62
2023/09/22 14:31:21;;;;;;;16.63;8.15;;;;;;;;;;5062078;28;21035;-65
2023/09/22 14:33:48;;;;;;;15.05;7.40;;;;;;;;;;5060830;28;20880;-63
2023/09/22 14:36:15;;;;;;;20.38;8.48;;;;;;;;;;5045674;28;20028;-63
2023/09/22 14:38:41;;;;;;;19.23;7.22;;;;;;;;;;5062615;28;20515;-61
2023/09/22 14:41:21;;;;;;;13.75;7.13;;;;;;;;;;5062922;28;20097;-62
2023/09/22 14:43:47;;;;;;;17.25;8.00;;;;;;;;;;5062844;28;20404;-63